Time;durP1;ratioP1;P1;durP2;ratioP2;P2;SDS_P1;SDS_P2;PMS_P1;PMS_P2;Temp;Humidity;BMP_temperature;BMP_pressure;BME280_temperature;BME280_humidity;BME280_pressure;Samples;Min_cycle;Max_cycle;Signal;HPM_P1;HPM_P2
2021/07/11 00:03:15;;;;;;;1.65;1.55;;;;;;;18.69;80.06;96219.13;5161334;57;20607;-71
2021/07/11 00:08:18;;;;;;;1.30;1.20;;;;;;;18.61;80.13;96230.09;5161522;57;20138;-71
2021/07/11 00:13:20;;;;;;;1.27;1.23;;;;;;;18.63;80.20;96231.63;5160570;57;20137;-71
2021/07/11 00:18:22;;;;;;;2.25;1.30;;;;;;;18.48;81.08;96234.75;5160844;57;20182;-71
2021/07/11 00:23:25;;;;;;;5.38;1.60;;;;;;;18.48;82.54;96249.50;5160538;57;20658;-71
2021/07/11 00:28:27;;;;;;;1.95;1.85;;;;;;;18.53;82.85;96245.94;5160348;57;20146;-71
2021/07/11 00:33:30;;;;;;;2.88;1.95;;;;;;;18.35;81.86;96256.94;5160373;57;20147;-71
2021/07/11 00:38:32;;;;;;;1.52;1.45;;;;;;;18.22;82.06;96256.72;5160114;57;20139;-70
2021/07/11 00:43:35;;;;;;;2.85;1.58;;;;;;;17.74;83.31;96274.66;5161054;57;20207;-71
2021/07/11 00:48:37;;;;;;;3.28;1.40;;;;;;;17.60;83.71;96292.47;5160868;57;20138;-70
2021/07/11 00:53:50;;;;;;;1.80;1.63;;;;;;;17.65;83.92;96282.53;5160862;57;20130;-70
2021/07/11 00:58:54;;;;;;;1.27;1.27;;;;;;;17.47;84.13;96292.19;5160789;57;20603;-70
2021/07/11 01:04:01;;;;;;;1.42;1.33;;;;;;;17.50;84.63;96288.38;5160742;57;20124;-71
2021/07/11 01:09:08;;;;;;;1.60;1.50;;;;;;;17.23;84.76;96294.72;5161097;57;20124;-71
2021/07/11 01:14:14;;;;;;;2.28;1.40;;;;;;;17.28;84.17;96301.59;5160532;57;20215;-71
2021/07/11 01:19:43;;;;;;;1.40;1.20;;;;;;;17.15;85.26;96299.28;5160265;57;20143;-70
2021/07/11 01:25:01;;;;;;;1.30;1.30;;;;;;;17.10;86.48;96308.41;5160371;57;20585;-70
2021/07/11 01:30:07;;;;;;;1.10;1.10;;;;;;;17.03;86.01;96298.50;5160531;57;20147;-71
2021/07/11 01:35:10;;;;;;;1.33;1.23;;;;;;;17.02;85.63;96307.41;5160037;57;20129;-71
2021/07/11 01:40:13;;;;;;;1.33;1.23;;;;;;;16.99;85.72;96311.19;5160279;57;20161;-70
2021/07/11 01:45:16;;;;;;;1.05;1.00;;;;;;;16.99;85.65;96308.41;5159208;57;20116;-70
2021/07/11 01:50:18;;;;;;;1.38;1.27;;;;;;;17.15;85.38;96302.06;5159866;57;20701;-70
2021/07/11 01:55:22;;;;;;;1.58;1.45;;;;;;;17.03;85.84;96298.50;5159555;57;20124;-70
2021/07/11 02:00:24;;;;;;;1.52;1.17;;;;;;;16.95;86.02;96300.28;5159850;57;20237;-71
2021/07/11 02:05:27;;;;;;;1.10;1.10;;;;;;;16.85;86.79;96301.00;5159447;57;20139;-70
2021/07/11 02:10:29;;;;;;;1.45;1.30;;;;;;;17.04;86.15;96297.25;5159517;57;20607;-71
2021/07/11 02:15:33;;;;;;;1.25;1.23;;;;;;;16.92;86.04;96300.50;5159226;57;20582;-70
2021/07/11 02:20:36;;;;;;;1.15;1.10;;;;;;;16.87;85.87;96304.81;5159521;57;20612;-70
2021/07/11 02:25:39;;;;;;;3.22;1.20;;;;;;;16.82;86.01;96296.44;5150380;57;20679;-70
2021/07/11 02:30:51;;;;;;;0.90;0.90;;;;;;;16.86;84.76;96292.16;5159340;57;20134;-70
2021/07/11 02:35:56;;;;;;;0.85;0.80;;;;;;;16.80;84.12;96296.19;5158992;57;20129;-70
2021/07/11 02:40:59;;;;;;;1.00;1.00;;;;;;;16.72;83.84;96295.91;5158802;57;20160;-71
2021/07/11 02:46:01;;;;;;;0.90;0.90;;;;;;;16.59;84.24;96308.81;5158810;57;20563;-71
2021/07/11 02:51:04;;;;;;;0.75;0.75;;;;;;;16.58;83.65;96312.88;5159141;57;20142;-71
2021/07/11 02:56:09;;;;;;;0.82;0.82;;;;;;;16.63;84.19;96312.88;5163703;57;20635;-71
2021/07/11 03:01:12;;;;;;;0.93;0.90;;;;;;;16.56;83.59;96321.72;5183173;57;20133;-71
2021/07/11 03:06:16;;;;;;;0.70;0.70;;;;;;;16.49;84.28;96330.53;5176192;57;20104;-71
2021/07/11 03:11:18;;;;;;;0.73;0.65;;;;;;;16.36;83.93;96324.66;5165937;57;20133;-71
2021/07/11 03:16:22;;;;;;;0.50;0.50;;;;;;;16.50;83.86;96326.50;5158628;57;20665;-71
2021/07/11 03:21:27;;;;;;;0.68;0.68;;;;;;;16.47;83.55;96330.28;5158752;57;20222;-71
2021/07/11 03:26:33;;;;;;;0.43;0.43;;;;;;;16.32;83.89;96322.13;5158341;57;20148;-71
2021/07/11 03:31:35;;;;;;;0.63;0.63;;;;;;;16.38;83.49;96322.13;5158898;57;20138;-71
2021/07/11 03:36:38;;;;;;;0.50;0.50;;;;;;;16.45;82.73;96311.28;5158246;57;20125;-71
2021/07/11 03:41:42;;;;;;;0.85;0.70;;;;;;;16.30;83.03;96305.13;5158521;57;20138;-71
2021/07/11 03:46:46;;;;;;;0.60;0.60;;;;;;;16.31;83.94;96311.44;5160788;57;20538;-71
2021/07/11 03:51:51;;;;;;;0.57;0.57;;;;;;;16.26;84.54;96309.41;5159083;57;20156;-70
2021/07/11 03:56:53;;;;;;;0.50;0.50;;;;;;;16.17;85.02;96304.06;5157933;57;20143;-70
2021/07/11 04:01:56;;;;;;;2.50;0.60;;;;;;;16.16;86.51;96308.88;5158094;57;20134;-71
2021/07/11 04:07:00;;;;;;;0.65;0.55;;;;;;;15.98;87.12;96306.47;5157918;57;20125;-70
2021/07/11 04:12:02;;;;;;;0.50;0.50;;;;;;;16.04;87.69;96300.94;5158068;57;20152;-71
2021/07/11 04:17:08;;;;;;;0.40;0.40;;;;;;;16.02;87.46;96297.88;5157692;57;20125;-71
2021/07/11 04:22:15;;;;;;;0.90;0.55;;;;;;;16.07;86.90;96302.72;5160826;57;20643;-70
2021/07/11 04:27:18;;;;;;;0.25;0.25;;;;;;;15.99;86.44;96296.84;5160811;57;20142;-71
2021/07/11 04:32:21;;;;;;;0.50;0.50;;;;;;;16.03;87.37;96305.75;5160909;57;20134;-71
2021/07/11 04:37:23;;;;;;;2.28;0.40;;;;;;;15.96;85.41;96306.22;5160648;57;20120;-70
2021/07/11 04:42:25;;;;;;;1.13;0.47;;;;;;;16.09;85.85;96305.78;5160166;57;20126;-70
2021/07/11 04:47:28;;;;;;;0.45;0.45;;;;;;;16.01;86.01;96304.72;5160125;57;20660;-70
2021/07/11 04:52:31;;;;;;;0.40;0.40;;;;;;;15.75;88.35;96310.38;5160217;57;20149;-71
2021/07/11 04:57:34;;;;;;;0.55;0.52;;;;;;;15.84;88.23;96301.06;5160337;57;20134;-71
2021/07/11 05:02:36;;;;;;;0.80;0.50;;;;;;;15.94;87.25;96300.38;5159545;57;20124;-71
2021/07/11 05:07:39;;;;;;;0.35;0.35;;;;;;;16.07;86.84;96303.50;5159278;57;20156;-71
2021/07/11 05:12:42;;;;;;;0.73;0.70;;;;;;;16.04;87.15;96301.69;5160412;57;20138;-71
2021/07/11 05:17:44;;;;;;;0.40;0.40;;;;;;;16.03;88.51;96300.19;5159966;57;20790;-71
2021/07/11 05:22:47;;;;;;;0.40;0.40;;;;;;;16.28;86.98;96306.91;5160487;57;20607;-71
2021/07/11 05:27:50;;;;;;;0.95;0.70;;;;;;;16.10;87.81;96310.09;5159782;57;20186;-71
2021/07/11 05:32:52;;;;;;;0.40;0.40;;;;;;;16.27;87.18;96310.94;5159314;57;20148;-70
2021/07/11 05:37:54;;;;;;;0.60;0.60;;;;;;;16.33;86.51;96309.69;5159803;57;20551;-70
2021/07/11 05:42:57;;;;;;;0.57;0.57;;;;;;;16.43;85.40;96299.84;5160039;57;20130;-70
2021/07/11 05:48:00;;;;;;;0.60;0.60;;;;;;;16.32;85.58;96304.63;5159049;57;20133;-70
2021/07/11 05:53:03;;;;;;;0.40;0.40;;;;;;;16.46;85.23;96315.56;5160020;57;20129;-71
2021/07/11 05:58:06;;;;;;;0.52;0.52;;;;;;;16.48;84.71;96317.88;5159592;57;20117;-70
2021/07/11 06:03:09;;;;;;;0.70;0.63;;;;;;;16.65;86.26;96318.72;5159697;57;20121;-70
2021/07/11 06:08:12;;;;;;;0.98;0.80;;;;;;;17.07;85.38;96328.97;5159380;57;20785;-70
2021/07/11 06:13:14;;;;;;;0.50;0.50;;;;;;;17.14;85.32;96328.50;5159488;57;20124;-70
2021/07/11 06:18:17;;;;;;;1.23;0.60;;;;;;;17.59;81.32;96337.69;5159569;57;20129;-71
2021/07/11 06:23:19;;;;;;;0.60;0.60;;;;;;;17.64;82.21;96339.72;5159474;57;20120;-70
2021/07/11 06:28:22;;;;;;;0.70;0.70;;;;;;;17.75;81.64;96343.25;5158996;57;20595;-70
2021/07/11 06:33:24;;;;;;;0.50;0.50;;;;;;;17.64;81.60;96350.91;5159167;57;20590;-70
2021/07/11 06:38:26;;;;;;;1.67;0.60;;;;;;;17.66;81.66;96342.78;5158994;57;20130;-70
2021/07/11 06:43:29;;;;;;;0.98;0.68;;;;;;;17.73;81.48;96359.03;5158235;57;20595;-70
2021/07/11 06:48:31;;;;;;;0.52;0.52;;;;;;;17.90;80.91;96359.78;5158816;57;20129;-70
2021/07/11 06:53:35;;;;;;;0.50;0.50;;;;;;;18.09;79.90;96374.72;5158959;57;20134;-70
2021/07/11 06:58:37;;;;;;;0.32;0.32;;;;;;;18.36;79.37;96376.72;5158671;57;20130;-71
2021/07/11 07:03:39;;;;;;;0.60;0.60;;;;;;;18.57;78.70;96374.38;5159241;57;20129;-71
2021/07/11 07:08:42;;;;;;;0.90;0.90;;;;;;;18.48;78.59;96378.25;5158565;57;20124;-71
2021/07/11 07:13:44;;;;;;;0.75;0.75;;;;;;;18.57;77.20;96369.56;5158716;57;20130;-71
2021/07/11 07:18:46;;;;;;;0.68;0.68;;;;;;;18.62;79.41;96382.00;5158422;57;20137;-69
2021/07/11 07:23:49;;;;;;;1.00;0.57;;;;;;;18.92;78.36;96376.53;5158399;57;20116;-70
2021/07/11 07:28:51;;;;;;;0.60;0.47;;;;;;;18.74;79.35;96379.94;5158511;57;20125;-70
2021/07/11 07:33:54;;;;;;;0.50;0.50;;;;;;;18.94;77.21;96385.19;5158456;57;20143;-70
2021/07/11 07:38:56;;;;;;;0.50;0.50;;;;;;;18.41;78.22;96384.34;5156597;57;20130;-70
2021/07/11 07:43:58;;;;;;;0.75;0.75;;;;;;;18.63;78.75;96385.56;5157825;57;20134;-71
2021/07/11 07:49:01;;;;;;;1.98;0.68;;;;;;;18.36;80.20;96389.97;5174812;57;20226;-70
2021/07/11 07:54:03;;;;;;;0.77;0.77;;;;;;;18.25;81.41;96396.31;5173537;57;20134;-69
2021/07/11 07:59:05;;;;;;;1.10;0.80;;;;;;;18.53;79.13;96404.69;5161401;57;20125;-70
2021/07/11 08:04:08;;;;;;;1.42;0.95;;;;;;;18.39;78.48;96402.91;5160043;57;20692;-70
2021/07/11 08:09:11;;;;;;;0.73;0.73;;;;;;;18.57;79.33;96402.38;5151526;57;20676;-70
2021/07/11 08:14:13;;;;;;;0.80;0.80;;;;;;;18.46;78.67;96417.16;5159742;57;20152;-70
2021/07/11 08:19:16;;;;;;;0.90;0.90;;;;;;;18.07;81.18;96410.84;5150364;57;20148;-70
2021/07/11 08:24:18;;;;;;;0.80;0.80;;;;;;;17.98;81.20;96413.16;5158397;57;20629;-70
2021/07/11 08:29:21;;;;;;;0.90;0.90;;;;;;;18.02;81.10;96403.22;5157935;57;20703;-70
2021/07/11 08:34:23;;;;;;;1.33;1.05;;;;;;;18.12;83.24;96417.69;5146033;57;20161;-69
2021/07/11 08:39:29;;;;;;;0.98;0.98;;;;;;;17.90;81.37;96413.66;5144608;57;20120;-69
2021/07/11 08:44:33;;;;;;;0.90;0.90;;;;;;;17.88;82.22;96421.03;5160772;57;20222;-69
2021/07/11 08:49:35;;;;;;;0.73;0.73;;;;;;;17.59;81.23;96413.91;5160782;57;20262;-70
2021/07/11 08:54:38;;;;;;;1.15;0.90;;;;;;;18.12;81.14;96415.66;5160573;57;20147;-69
2021/07/11 08:59:42;;;;;;;1.13;1.13;;;;;;;18.11;80.38;96418.97;5160381;57;20125;-69
2021/07/11 09:04:46;;;;;;;1.08;1.08;;;;;;;17.96;80.49;96419.22;5160427;57;20147;-69
2021/07/11 09:09:57;;;;;;;2.13;1.00;;;;;;;18.04;81.33;96425.84;5159967;57;20121;-69
2021/07/11 09:14:59;;;;;;;0.90;0.90;;;;;;;18.76;78.15;96419.38;5160375;57;20147;-69
2021/07/11 09:20:03;;;;;;;1.00;1.00;;;;;;;19.54;74.36;96420.53;5160165;57;20129;-69
2021/07/11 09:25:06;;;;;;;1.48;1.08;;;;;;;19.81;75.32;96424.44;5160051;57;20120;-69
2021/07/11 09:30:10;;;;;;;1.40;1.08;;;;;;;19.14;74.99;96427.63;5149547;57;20122;-70
2021/07/11 09:35:17;;;;;;;1.00;1.00;;;;;;;19.79;75.18;96429.78;5159504;57;20124;-70
2021/07/11 09:40:22;;;;;;;1.15;1.10;;;;;;;20.17;71.25;96437.16;5159379;57;20120;-70
2021/07/11 09:45:29;;;;;;;1.27;1.10;;;;;;;20.97;69.83;96436.59;5159330;57;20135;-69
2021/07/11 09:50:32;;;;;;;1.30;1.20;;;;;;;22.26;64.60;96431.47;5157055;57;20120;-70
2021/07/11 09:55:36;;;;;;;1.00;1.00;;;;;;;24.30;58.71;96434.19;5159351;57;20124;-70
2021/07/11 10:00:43;;;;;;;0.95;0.95;;;;;;;24.91;53.61;96441.84;5151729;57;21019;-70
2021/07/11 10:05:46;;;;;;;2.15;1.20;;;;;;;23.90;58.24;96437.19;5152546;57;20248;-70
2021/07/11 10:10:49;;;;;;;1.10;1.10;;;;;;;24.28;58.55;96431.16;5150528;57;20121;-70
2021/07/11 10:15:51;;;;;;;1.30;1.20;;;;;;;22.79;60.94;96428.25;5158077;57;20156;-70
2021/07/11 10:20:57;;;;;;;1.42;1.33;;;;;;;23.22;61.04;96436.34;5158385;57;20142;-70
2021/07/11 10:26:12;;;;;;;1.63;1.52;;;;;;;23.78;61.54;96435.16;5156768;57;20129;-70
2021/07/11 10:31:23;;;;;;;1.60;1.50;;;;;;;24.71;55.44;96428.50;5158396;57;20129;-70
2021/07/11 10:36:32;;;;;;;1.60;1.40;;;;;;;26.23;52.35;96425.06;5149514;57;20168;-70
2021/07/11 10:41:46;;;;;;;1.38;1.38;;;;;;;24.01;57.18;96424.88;5158660;57;20594;-70
2021/07/11 10:46:57;;;;;;;1.55;1.45;;;;;;;23.71;59.45;96425.31;5158227;57;20125;-70
2021/07/11 10:52:04;;;;;;;2.80;1.77;;;;;;;22.97;59.05;96417.41;5158900;57;20151;-70
2021/07/11 10:57:11;;;;;;;1.38;1.38;;;;;;;24.35;57.59;96427.66;5157929;57;20121;-70
2021/07/11 11:02:23;;;;;;;1.50;1.40;;;;;;;26.97;50.85;96417.88;5158217;57;20558;-70
2021/07/11 11:07:37;;;;;;;1.65;1.50;;;;;;;26.35;52.88;96414.13;5158061;57;20120;-70
2021/07/11 11:12:39;;;;;;;1.23;1.23;;;;;;;26.98;50.10;96405.19;5164117;57;20682;-70
2021/07/11 11:17:42;;;;;;;3.85;3.55;;;;;;;24.83;52.16;96405.03;5170851;57;20133;-71
2021/07/11 11:22:55;;;;;;;2.20;1.50;;;;;;;24.37;56.48;96397.53;5157689;57;20121;-71
2021/07/11 11:27:57;;;;;;;1.40;1.30;;;;;;;23.60;59.07;96397.34;5157930;57;20129;-71
2021/07/11 11:33:00;;;;;;;1.40;1.30;;;;;;;23.65;59.44;96390.81;5160578;57;20142;-71
2021/07/11 11:38:05;;;;;;;2.42;1.45;;;;;;;25.50;53.45;96391.84;5160213;57;20684;-70
2021/07/11 11:43:08;;;;;;;1.45;1.23;;;;;;;26.86;50.70;96377.81;5157740;57;20214;-71
2021/07/11 11:48:12;;;;;;;2.40;1.50;;;;;;;25.67;50.46;96377.91;5155336;57;20124;-71
2021/07/11 11:53:15;;;;;;;1.38;1.20;;;;;;;25.51;52.09;96393.34;5150487;57;20671;-71
2021/07/11 11:58:29;;;;;;;1.23;1.23;;;;;;;24.53;53.14;96393.53;5154415;57;20120;-71
2021/07/11 12:03:36;;;;;;;1.88;1.40;;;;;;;23.65;55.17;96379.53;5151025;57;20125;-71
2021/07/11 12:08:40;;;;;;;1.70;1.50;;;;;;;23.22;57.55;96388.44;5154250;57;20714;-71
2021/07/11 12:13:43;;;;;;;1.50;1.40;;;;;;;23.65;56.46;96382.38;5158874;57;20133;-70
2021/07/11 12:18:49;;;;;;;1.35;1.35;;;;;;;23.90;57.18;96363.03;5155710;57;20406;-71
2021/07/11 12:24:03;;;;;;;2.42;1.20;;;;;;;24.28;57.19;96364.16;5152669;57;20125;-71
2021/07/11 12:29:06;;;;;;;1.40;1.30;;;;;;;23.80;59.10;96373.28;5156667;57;20125;-71
2021/07/11 12:34:13;;;;;;;1.42;1.33;;;;;;;23.92;55.81;96361.19;5152256;57;20125;-71
2021/07/11 12:39:17;;;;;;;2.10;1.40;;;;;;;23.57;58.81;96364.56;5153740;57;20129;-71
2021/07/11 12:44:35;;;;;;;1.50;1.40;;;;;;;23.86;56.73;96363.38;5155284;57;20147;-70
2021/07/11 12:49:52;;;;;;;1.42;1.33;;;;;;;24.85;59.61;96373.41;5178185;57;20116;-70
2021/07/11 12:54:54;;;;;;;1.13;1.13;;;;;;;25.94;55.89;96370.59;5163619;57;20962;-70
2021/07/11 12:59:56;;;;;;;1.00;1.00;;;;;;;25.40;53.61;96368.94;5143697;57;20117;-70
2021/07/11 13:05:01;;;;;;;1.13;1.13;;;;;;;24.65;56.25;96366.47;5148803;57;20112;-70
2021/07/11 13:10:07;;;;;;;1.40;1.30;;;;;;;23.98;57.59;96367.44;5145845;57;20116;-71
2021/07/11 13:15:14;;;;;;;1.92;1.20;;;;;;;24.05;58.07;96363.16;5148018;57;20231;-70
2021/07/11 13:20:17;;;;;;;1.25;1.15;;;;;;;24.76;55.40;96371.09;5151156;57;20159;-71
2021/07/11 13:25:19;;;;;;;1.30;1.20;;;;;;;25.95;51.07;96371.38;5155031;57;20125;-71
2021/07/11 13:30:26;;;;;;;1.00;1.00;;;;;;;27.24;47.06;96361.44;5156680;57;20120;-71
2021/07/11 13:35:29;;;;;;;1.20;1.20;;;;;;;27.56;46.12;96361.50;5152681;57;20116;-71
2021/07/11 13:40:31;;;;;;;1.38;1.27;;;;;;;27.18;48.08;96360.91;5156115;57;20130;-73
2021/07/11 13:45:36;;;;;;;1.27;1.20;;;;;;;27.91;48.19;96350.31;5147072;57;20238;-71
2021/07/11 13:50:39;;;;;;;1.20;1.20;;;;;;;28.00;49.05;96352.56;5148761;57;20146;-71
2021/07/11 13:55:41;;;;;;;1.08;1.08;;;;;;;27.83;48.43;96352.44;5157379;57;20142;-71
2021/07/11 14:00:44;;;;;;;1.10;1.10;;;;;;;28.11;47.33;96350.00;5151420;57;20161;-71
2021/07/11 14:05:46;;;;;;;1.20;1.20;;;;;;;28.24;46.77;96335.50;5153251;57;20671;-72
2021/07/11 14:10:49;;;;;;;0.90;0.90;;;;;;;28.72;45.17;96344.53;5147189;57;20362;-72
2021/07/11 14:15:51;;;;;;;1.33;1.23;;;;;;;27.92;44.73;96332.69;5156820;57;20155;-72
2021/07/11 14:20:54;;;;;;;1.63;1.27;;;;;;;26.54;48.59;96315.28;5150202;57;20121;-72
2021/07/11 14:25:56;;;;;;;1.00;1.00;;;;;;;24.58;53.01;96335.34;5154119;46;20139;-71
2021/07/11 14:30:59;;;;;;;0.80;0.80;;;;;;;23.63;52.40;96353.19;5137041;57;20135;-71
2021/07/11 14:36:02;;;;;;;1.33;1.23;;;;;;;21.90;57.60;96360.69;5134717;57;20126;-71
2021/07/11 14:41:04;;;;;;;1.55;1.05;;;;;;;20.00;67.54;96366.41;5138139;57;20125;-71
2021/07/11 14:46:07;;;;;;;0.90;0.90;;;;;;;19.44;71.00;96337.28;5148344;57;20113;-71
2021/07/11 14:51:10;;;;;;;0.75;0.75;;;;;;;19.62;74.35;96322.63;5142965;57;20130;-73
2021/07/11 14:56:12;;;;;;;4.10;1.13;;;;;;;19.63;72.44;96341.72;5138667;57;20139;-73
2021/07/11 15:01:15;;;;;;;1.10;1.00;;;;;;;21.12;67.54;96339.38;5140101;57;20134;-71
2021/07/11 15:06:17;;;;;;;0.85;0.85;;;;;;;21.86;65.20;96346.19;5136053;57;20126;-73
2021/07/11 15:11:19;;;;;;;2.45;0.80;;;;;;;21.86;66.89;96351.81;5135835;57;20126;-71
2021/07/11 15:16:23;;;;;;;1.13;1.00;;;;;;;22.77;61.93;96351.19;5135095;57;20724;-71
2021/07/11 15:21:25;;;;;;;0.77;0.77;;;;;;;22.96;59.62;96337.72;5135690;57;20130;-71
2021/07/11 15:26:29;;;;;;;0.98;0.95;;;;;;;22.54;61.37;96328.31;5137270;57;20565;-68
2021/07/11 15:31:33;;;;;;;0.68;0.68;;;;;;;21.87;60.32;96313.97;5137138;57;20126;-71
2021/07/11 15:36:36;;;;;;;0.80;0.80;;;;;;;21.08;61.61;96313.63;5135584;57;20130;-73
2021/07/11 15:41:38;;;;;;;0.60;0.60;;;;;;;21.20;60.90;96311.41;5124580;57;20144;-70
2021/07/11 15:46:41;;;;;;;1.08;0.60;;;;;;;21.98;56.75;96305.34;5127924;57;20123;-71
2021/07/11 15:51:44;;;;;;;0.50;0.50;;;;;;;22.12;58.59;96289.94;5128096;57;20669;-72
2021/07/11 15:56:47;;;;;;;0.60;0.60;;;;;;;21.86;55.08;96281.50;5145470;57;20126;-71
2021/07/11 16:01:49;;;;;;;0.80;0.80;;;;;;;22.38;53.44;96277.94;5147731;57;20738;-71
2021/07/11 16:06:52;;;;;;;0.90;0.90;;;;;;;22.13;55.18;96263.34;5130347;57;20117;-71
2021/07/11 16:11:54;;;;;;;1.13;0.90;;;;;;;21.66;54.85;96273.63;5134194;57;20253;-71
2021/07/11 16:16:57;;;;;;;0.90;0.90;;;;;;;21.20;56.51;96269.25;5139337;57;20125;-71
2021/07/11 16:22:00;;;;;;;0.85;0.85;;;;;;;21.36;55.62;96265.44;5129406;57;20138;-71
2021/07/11 16:27:04;;;;;;;1.13;1.13;;;;;;;22.54;55.85;96255.09;5136887;57;20876;-73
2021/07/11 16:32:07;;;;;;;0.98;0.98;;;;;;;22.91;55.62;96265.31;5139765;57;20694;-72
2021/07/11 16:37:09;;;;;;;0.82;0.82;;;;;;;23.07;52.51;96267.00;5128685;57;20177;-71
2021/07/11 16:42:12;;;;;;;1.00;1.00;;;;;;;22.63;54.55;96271.56;5129804;57;20658;-72
2021/07/11 16:47:14;;;;;;;1.00;1.00;;;;;;;22.33;56.03;96268.31;5128978;57;20235;-73
2021/07/11 16:52:17;;;;;;;0.77;0.77;;;;;;;22.52;55.12;96279.47;5129287;57;20135;-70
2021/07/11 16:57:19;;;;;;;1.05;0.98;;;;;;;22.27;56.41;96259.22;5129867;57;20279;-72
2021/07/11 17:02:22;;;;;;;0.88;0.88;;;;;;;21.70;55.62;96257.19;5136601;57;20654;-73
2021/07/11 17:07:24;;;;;;;0.90;0.90;;;;;;;21.83;56.76;96260.81;5120946;57;20230;-71
2021/07/11 17:12:28;;;;;;;1.17;1.10;;;;;;;22.59;57.58;96254.19;5132136;57;20688;-70
2021/07/11 17:17:31;;;;;;;1.02;1.02;;;;;;;22.84;56.16;96237.84;5139318;57;20690;-71
2021/07/11 17:22:34;;;;;;;0.85;0.85;;;;;;;22.54;57.01;96238.19;5120541;57;20214;-70
2021/07/11 17:27:37;;;;;;;0.90;0.90;;;;;;;22.52;56.44;96229.53;5137546;57;20223;-69
2021/07/11 17:32:40;;;;;;;0.80;0.80;;;;;;;22.83;58.33;96233.50;5137590;57;20232;-72
2021/07/11 17:37:43;;;;;;;1.95;1.08;;;;;;;22.53;56.67;96236.66;5139518;57;20168;-72
2021/07/11 17:42:46;;;;;;;0.93;0.90;;;;;;;22.79;55.37;96228.19;5140447;57;20209;-74
2021/07/11 17:47:48;;;;;;;1.40;0.90;;;;;;;23.09;55.40;96235.47;5137977;57;20569;-72
2021/07/11 17:52:51;;;;;;;0.90;0.90;;;;;;;23.48;57.35;96238.13;5140912;57;20997;-70
2021/07/11 17:57:53;;;;;;;0.75;0.75;;;;;;;23.99;54.36;96247.56;5136880;57;20651;-72
2021/07/11 18:02:55;;;;;;;0.90;0.90;;;;;;;23.77;54.09;96247.41;5131722;57;20683;-70
2021/07/11 18:07:59;;;;;;;1.00;1.00;;;;;;;23.22;54.93;96253.09;5136730;57;20147;-70
2021/07/11 18:13:02;;;;;;;1.08;1.02;;;;;;;22.46;57.07;96253.44;5132148;57;20210;-71
2021/07/11 18:18:05;;;;;;;0.85;0.85;;;;;;;21.53;59.43;96242.69;5136071;57;20648;-71
2021/07/11 18:23:07;;;;;;;0.93;0.93;;;;;;;20.98;63.59;96245.06;5136501;57;20126;-71
2021/07/11 18:28:10;;;;;;;0.73;0.73;;;;;;;20.57;61.88;96241.81;5133671;57;20129;-71
2021/07/11 18:33:12;;;;;;;2.22;0.80;;;;;;;20.27;65.47;96244.72;5130703;57;20140;-70
2021/07/11 18:38:15;;;;;;;1.08;1.00;;;;;;;19.88;68.16;96242.34;5124588;57;20126;-72
2021/07/11 18:43:17;;;;;;;0.90;0.90;;;;;;;19.70;67.44;96239.47;5135669;57;20482;-71
2021/07/11 18:48:20;;;;;;;1.08;0.98;;;;;;;19.42;70.87;96244.56;5129180;57;20121;-72
2021/07/11 18:53:22;;;;;;;0.90;0.90;;;;;;;19.22;73.05;96238.06;5117445;57;20684;-72
2021/07/11 18:58:25;;;;;;;2.47;0.85;;;;;;;18.93;74.96;96243.66;5115992;57;20131;-71
2021/07/11 19:03:27;;;;;;;1.20;1.10;;;;;;;18.72;77.24;96246.09;5137154;57;20113;-71
2021/07/11 19:08:30;;;;;;;0.95;0.95;;;;;;;18.47;77.36;96250.81;5136659;57;20215;-72
2021/07/11 19:13:33;;;;;;;1.00;1.00;;;;;;;18.38;78.80;96241.91;5117699;57;20151;-73
2021/07/11 19:18:36;;;;;;;1.95;0.90;;;;;;;18.36;79.28;96248.00;5113574;57;20172;-71
2021/07/11 19:23:39;;;;;;;0.80;0.80;;;;;;;18.29;79.73;96254.16;5124244;57;20155;-71
2021/07/11 19:28:41;;;;;;;0.77;0.77;;;;;;;18.08;80.59;96255.75;5128017;57;20672;-71
2021/07/11 19:33:43;;;;;;;1.30;1.20;;;;;;;17.80;81.72;96255.84;5139355;57;20600;-71
2021/07/11 19:38:46;;;;;;;0.90;0.90;;;;;;;17.62;82.51;96258.41;5135274;57;20578;-72
2021/07/11 19:43:49;;;;;;;1.30;0.98;;;;;;;17.75;81.23;96259.41;5135314;57;20127;-71
2021/07/11 19:48:52;;;;;;;1.50;1.00;;;;;;;17.54;82.15;96251.81;5131051;57;20130;-72
2021/07/11 19:53:55;;;;;;;2.60;0.93;;;;;;;17.41;82.40;96259.94;5145251;57;20121;-71
2021/07/11 19:58:57;;;;;;;2.03;1.00;;;;;;;17.19;83.25;96253.09;5139555;57;20125;-71
2021/07/11 20:04:00;;;;;;;0.93;0.93;;;;;;;17.14;83.59;96265.00;5141778;57;20136;-71
2021/07/11 20:09:05;;;;;;;0.85;0.85;;;;;;;16.97;84.00;96255.88;5139138;57;20741;-71
2021/07/11 20:14:09;;;;;;;1.95;0.90;;;;;;;16.90;84.22;96261.94;5140676;57;20121;-72
2021/07/11 20:19:11;;;;;;;3.13;0.93;;;;;;;16.96;83.81;96262.72;5139609;57;20127;-71
2021/07/11 20:24:14;;;;;;;1.48;1.10;;;;;;;16.98;83.69;96262.97;5139524;57;20117;-71
2021/07/11 20:29:16;;;;;;;1.05;1.00;;;;;;;16.87;83.77;96251.03;5140452;57;20121;-71
2021/07/11 20:34:18;;;;;;;1.27;0.98;;;;;;;16.57;84.12;96253.53;5142666;57;20589;-71
2021/07/11 20:39:21;;;;;;;2.90;1.05;;;;;;;16.39;85.57;96246.34;5142370;57;20131;-71
2021/07/11 20:44:24;;;;;;;1.08;0.95;;;;;;;16.40;85.55;96247.09;5142507;57;20169;-70
2021/07/11 20:49:29;;;;;;;1.75;0.90;;;;;;;16.52;84.99;96243.09;5142350;57;20135;-70
2021/07/11 20:54:31;;;;;;;2.05;1.10;;;;;;;16.24;85.93;96231.06;5140912;57;20129;-71
2021/07/11 20:59:37;;;;;;;3.42;1.00;;;;;;;16.39;85.25;96224.03;5142540;57;20138;-71
2021/07/11 21:04:41;;;;;;;0.70;0.70;;;;;;;16.09;85.96;96227.72;5142041;57;20143;-72
2021/07/11 21:09:43;;;;;;;1.02;0.90;;;;;;;16.09;86.66;96231.28;5143954;57;20595;-71
2021/07/11 21:14:45;;;;;;;1.00;1.00;;;;;;;16.04;87.01;96225.66;5144103;57;20126;-71
2021/07/11 21:19:50;;;;;;;4.43;1.17;;;;;;;15.71;87.26;96220.72;5159602;57;20113;-71
2021/07/11 21:24:52;;;;;;;2.22;1.08;;;;;;;15.66;87.52;96222.22;5140030;57;20121;-71
2021/07/11 21:29:55;;;;;;;1.58;1.05;;;;;;;15.77;87.03;96216.69;5146596;57;20121;-69
2021/07/11 21:34:57;;;;;;;0.88;0.88;;;;;;;15.76;86.27;96206.06;5139970;57;20153;-71
2021/07/11 21:40:00;;;;;;;2.75;0.93;;;;;;;15.72;85.94;96205.50;5146732;57;20143;-70
2021/07/11 21:45:04;;;;;;;0.82;0.82;;;;;;;15.51;87.15;96201.34;5139583;57;20210;-72
2021/07/11 21:50:07;;;;;;;1.70;0.90;;;;;;;15.50;87.37;96200.59;5139913;57;20130;-72
2021/07/11 21:55:10;;;;;;;1.65;0.93;;;;;;;15.59;86.70;96197.59;5146173;57;20126;-70
2021/07/11 22:00:21;;;;;;;1.02;1.00;;;;;;;15.43;87.08;96194.69;5137987;57;20140;-71
2021/07/11 22:05:24;;;;;;;0.95;0.95;;;;;;;15.23;87.42;96200.38;5139120;57;20139;-70
2021/07/11 22:10:26;;;;;;;4.28;1.02;;;;;;;15.39;87.24;96202.50;5139290;57;20163;-72
2021/07/11 22:15:28;;;;;;;2.83;1.05;;;;;;;15.18;87.38;96201.09;5135414;57;20667;-72
2021/07/11 22:20:31;;;;;;;1.85;1.00;;;;;;;15.09;87.52;96197.25;5137904;57;20135;-73
2021/07/11 22:25:34;;;;;;;0.93;0.93;;;;;;;15.04;87.68;96191.63;5133513;57;20131;-71
2021/07/11 22:30:37;;;;;;;3.97;1.00;;;;;;;15.17;87.40;96180.09;5137506;57;20122;-72
2021/07/11 22:35:40;;;;;;;2.35;1.20;;;;;;;15.01;87.45;96165.59;5138082;57;20592;-71
2021/07/11 22:40:42;;;;;;;1.10;1.10;;;;;;;14.99;87.63;96175.69;5138850;57;20121;-70
2021/07/11 22:45:45;;;;;;;0.98;0.82;;;;;;;14.91;87.97;96164.22;5138521;57;20117;-70
2021/07/11 22:50:48;;;;;;;0.98;0.98;;;;;;;14.81;88.03;96173.25;5137358;57;20152;-71
2021/07/11 22:55:52;;;;;;;1.08;1.05;;;;;;;14.74;88.58;96168.16;5147853;57;20139;-72
2021/07/11 23:00:56;;;;;;;0.93;0.93;;;;;;;14.72;88.51;96165.84;5153489;57;20125;-72
2021/07/11 23:05:58;;;;;;;1.13;1.13;;;;;;;14.69;88.34;96161.28;5147205;57;20645;-71
2021/07/11 23:11:00;;;;;;;1.23;1.20;;;;;;;14.57;88.86;96156.09;5150992;57;20117;-70
2021/07/11 23:16:03;;;;;;;3.40;1.10;;;;;;;14.62;88.24;96164.50;5152135;57;20130;-71
2021/07/11 23:21:05;;;;;;;1.10;1.00;;;;;;;14.51;88.08;96160.88;5146442;57;20126;-72
2021/07/11 23:26:08;;;;;;;0.90;0.90;;;;;;;14.43;88.77;96149.41;5141595;57;20117;-71
2021/07/11 23:31:10;;;;;;;1.45;1.10;;;;;;;14.43;88.23;96145.88;5142537;57;20609;-71
2021/07/11 23:36:13;;;;;;;1.60;1.00;;;;;;;14.36;88.55;96147.84;5140677;57;20153;-72
2021/07/11 23:41:15;;;;;;;0.80;0.80;;;;;;;14.29;88.42;96151.06;5140891;57;20117;-71
2021/07/11 23:46:18;;;;;;;2.80;1.10;;;;;;;14.16;89.16;96147.09;5140954;57;20143;-71
2021/07/11 23:51:20;;;;;;;2.30;0.80;;;;;;;14.26;88.82;96154.81;5141863;57;20608;-71